Terminal Aerodrome Forecast
Issued by NWS

Home | Current Version | Previous Version | Text Only | Print | Product List | Glossary On
Versions: 1 2 3 4 5 6 7 8 9 10 11 12 13 14 15 16 17 18 19 20 21 22 23 24
000
FTUS44 KEWX 191100
TAFSSF
TAF
KSSF 191132Z 1912/2012 00000KT P6SM FEW050 BKN250
     FM191500 13007KT P6SM FEW030 BKN250
     FM191700 13009KT P6SM OVC040
     FM200800 12004KT P6SM OVC007=

USA.gov is the U.S. government's official web portal to all federal, state and local government web resources and services.